createdAt,value
2018-02-20T00:01:45.493Z,19.20
2018-02-20T00:04:12.152Z,24.75
2018-02-20T00:06:38.905Z,23.25
2018-02-20T00:09:05.539Z,24.10
2018-02-20T00:11:32.215Z,24.73
2018-02-20T00:13:58.885Z,25.23
2018-02-20T00:16:25.546Z,27.30
2018-02-20T00:18:52.531Z,20.62
2018-02-20T00:21:23.185Z,24.83
2018-02-20T00:23:54.100Z,23.95
2018-02-20T00:26:20.770Z,27.27
2018-02-20T00:28:47.443Z,23.23
2018-02-20T00:31:14.772Z,20.85
2018-02-20T00:33:41.470Z,21.35
2018-02-20T00:36:08.190Z,26.58
2018-02-20T00:38:34.896Z,25.45
2018-02-20T00:41:06.058Z,29.87
2018-02-20T00:43:36.984Z,22.02
2018-02-20T00:46:03.639Z,24.77
2018-02-20T00:48:30.277Z,25.40
2018-02-20T00:51:01.237Z,25.02
2018-02-20T00:53:28.669Z,25.17
2018-02-20T00:55:55.434Z,23.23
2018-02-20T00:58:22.124Z,24.00
2018-02-20T01:00:48.780Z,20.52
2018-02-20T01:03:15.445Z,25.35
2018-02-20T01:05:42.099Z,23.92
2018-02-20T01:08:08.784Z,20.23
2018-02-20T01:10:36.073Z,24.35
2018-02-20T01:13:02.759Z,23.38
2018-02-20T01:15:29.414Z,24.87
2018-02-20T01:17:56.461Z,25.30
2018-02-20T01:20:23.134Z,22.98
2018-02-20T01:22:49.808Z,26.37
2018-02-20T01:25:20.763Z,27.05
2018-02-20T01:27:47.423Z,23.50
2018-02-20T01:30:14.146Z,25.17
2018-02-20T01:32:40.810Z,21.65
2018-02-20T01:35:07.469Z,26.98
2018-02-20T01:37:34.154Z,27.70
2018-02-20T01:40:00.839Z,26.02
2018-02-20T01:42:28.308Z,21.90
2018-02-20T01:44:59.454Z,25.30
2018-02-20T01:47:26.128Z,23.85
2018-02-20T01:49:52.853Z,26.20
2018-02-20T01:52:19.753Z,24.52
2018-02-20T01:54:50.523Z,24.63
2018-02-20T01:57:17.158Z,24.10
2018-02-20T01:59:43.871Z,23.65
2018-02-20T02:02:10.505Z,22.65
2018-02-20T02:04:37.201Z,24.77
2018-02-20T02:07:03.914Z,24.80
2018-02-20T02:09:34.674Z,27.23
2018-02-20T02:12:02.627Z,25.23
2018-02-20T02:14:29.288Z,25.30
2018-02-20T02:16:55.938Z,21.23
2018-02-20T02:19:22.584Z,22.40
2018-02-20T02:21:49.276Z,20.80
2018-02-20T02:24:15.923Z,23.02
2018-02-20T02:26:42.592Z,22.25
2018-02-20T02:29:09.290Z,25.17
2018-02-20T02:31:35.925Z,21.23
2018-02-20T02:34:06.257Z,23.92
2018-02-20T02:36:32.893Z,23.10
2018-02-20T02:39:00.271Z,21.48
2018-02-20T02:41:26.921Z,21.83
2018-02-20T02:43:53.620Z,27.15
2018-02-20T02:46:20.261Z,30.05
2018-02-20T02:48:50.808Z,22.08
2018-02-20T02:51:17.492Z,22.17
2018-02-20T02:53:45.315Z,22.05
2018-02-20T02:56:11.956Z,21.98
2018-02-20T02:58:39.811Z,21.65
2018-02-20T03:01:06.474Z,25.77
2018-02-20T03:03:33.117Z,21.15
2018-02-20T03:05:59.788Z,21.80
2018-02-20T03:08:26.437Z,22.10
2018-02-20T03:10:53.091Z,23.45
2018-02-20T03:13:19.921Z,23.15
2018-02-20T03:15:47.185Z,22.45
2018-02-20T03:18:17.601Z,23.12
2018-02-20T03:20:44.248Z,22.23
2018-02-20T03:23:11.814Z,23.67
2018-02-20T03:25:38.497Z,24.00
2018-02-20T03:28:05.191Z,24.10
2018-02-20T03:30:31.842Z,27.77
2018-02-20T03:32:58.484Z,24.60
2018-02-20T03:35:25.177Z,20.23
2018-02-20T03:37:51.819Z,22.95
2018-02-20T03:40:18.537Z,25.42
2018-02-20T03:42:45.246Z,23.67
2018-02-20T03:45:11.876Z,22.85
2018-02-20T03:47:39.881Z,21.87
2018-02-20T03:50:06.541Z,21.45
2018-02-20T03:52:33.212Z,20.95
2018-02-20T03:54:59.858Z,18.67
2018-02-20T03:57:27.296Z,20.30
2018-02-20T03:59:54.252Z,27.08
2018-02-20T04:02:20.987Z,22.10
2018-02-20T04:04:47.792Z,21.77
2018-02-20T04:07:14.468Z,24.20
2018-02-20T04:09:41.160Z,23.42
2018-02-20T04:12:07.884Z,22.02
2018-02-20T04:14:35.411Z,21.65
2018-02-20T04:17:06.049Z,21.05
2018-02-20T04:19:32.748Z,19.02
2018-02-20T04:22:00.108Z,22.60
2018-02-20T04:24:26.753Z,21.52
2018-02-20T04:26:53.429Z,22.75
2018-02-20T04:29:20.077Z,19.27
2018-02-20T04:31:46.752Z,23.75
2018-02-20T04:34:13.388Z,23.62
2018-02-20T04:36:40.836Z,24.98
2018-02-20T04:39:11.944Z,20.37
2018-02-20T04:41:38.710Z,28.12
2018-02-20T04:44:05.380Z,25.50
2018-02-20T04:46:32.064Z,22.13
2018-02-20T04:48:58.683Z,24.27
2018-02-20T04:51:25.325Z,21.40
2018-02-20T04:53:59.658Z,22.42
2018-02-20T04:56:26.369Z,22.25
2018-02-20T04:58:53.018Z,24.33
2018-02-20T05:01:20.184Z,25.08
2018-02-20T05:03:46.948Z,24.52
2018-02-20T05:06:13.744Z,23.33
2018-02-20T05:08:40.393Z,22.77
2018-02-20T05:11:07.113Z,26.27
2018-02-20T05:13:33.815Z,22.77
2018-02-20T05:16:00.461Z,23.45
2018-02-20T05:18:27.113Z,23.00
2018-02-20T05:20:53.751Z,20.58
2018-02-20T05:23:20.496Z,21.60
2018-02-20T05:25:47.120Z,19.12
2018-02-20T05:28:13.915Z,21.33
2018-02-20T05:30:41.448Z,21.60
2018-02-20T05:33:08.109Z,22.65
2018-02-20T05:35:34.740Z,24.25
2018-02-20T05:38:01.484Z,21.23
2018-02-20T05:40:28.988Z,23.98
2018-02-20T05:42:55.815Z,24.73
2018-02-20T05:45:22.478Z,23.25
2018-02-20T05:47:49.786Z,24.67
2018-02-20T05:50:16.534Z,21.00
2018-02-20T05:52:43.168Z,21.50
2018-02-20T05:55:09.816Z,23.02
2018-02-20T05:57:36.440Z,21.60
2018-02-20T06:00:03.141Z,22.65
2018-02-20T06:02:29.758Z,23.75
2018-02-20T06:04:56.406Z,25.45
2018-02-20T06:07:23.070Z,21.37
2018-02-20T06:09:49.721Z,19.60
2018-02-20T06:12:17.217Z,21.80
2018-02-20T06:14:43.855Z,27.92
2018-02-20T06:17:10.683Z,23.60
2018-02-20T06:19:37.343Z,27.17
2018-02-20T06:22:04.564Z,25.98
2018-02-20T06:24:31.273Z,21.50
2018-02-20T06:26:57.925Z,21.15
2018-02-20T06:29:24.680Z,25.15
2018-02-20T06:31:51.339Z,25.15
2018-02-20T06:34:18.052Z,22.77
2018-02-20T06:36:44.859Z,25.85
2018-02-20T06:39:11.507Z,26.62
2018-02-20T06:41:38.148Z,24.92
2018-02-20T06:44:04.764Z,23.00
2018-02-20T06:46:31.458Z,23.65
2018-02-20T06:48:58.084Z,29.12
2018-02-20T06:51:24.721Z,28.48
2018-02-20T06:53:55.395Z,27.80
2018-02-20T06:56:22.023Z,25.77
2018-02-20T06:58:48.680Z,24.15
2018-02-20T07:01:15.413Z,30.75
2018-02-20T07:03:42.088Z,26.83
2018-02-20T07:06:08.772Z,21.52
2018-02-20T07:08:35.409Z,31.45
2018-02-20T07:11:02.056Z,30.02
2018-02-20T07:13:28.698Z,26.85
2018-02-20T07:15:55.364Z,31.62
2018-02-20T07:18:22.059Z,27.37
2018-02-20T07:20:48.707Z,27.45
2018-02-20T07:23:15.365Z,26.30
2018-02-20T07:25:42.005Z,25.00
2018-02-20T07:28:08.652Z,25.60
2018-02-20T07:30:35.368Z,23.27
2018-02-20T07:33:02.821Z,26.12
2018-02-20T07:35:29.466Z,25.90
2018-02-20T07:37:56.104Z,24.92
2018-02-20T07:40:23.274Z,28.40
2018-02-20T07:42:49.908Z,26.02
2018-02-20T07:45:16.574Z,24.58
2018-02-20T07:47:43.201Z,23.15
2018-02-20T07:50:09.886Z,28.20
2018-02-20T07:52:36.525Z,27.65
2018-02-20T07:55:07.772Z,28.12
2018-02-20T07:57:34.444Z,26.12
2018-02-20T08:00:01.106Z,27.92
2018-02-20T08:02:27.792Z,27.08
2018-02-20T08:04:55.251Z,29.45
2018-02-20T08:07:21.906Z,24.50
2018-02-20T08:09:48.584Z,26.70
2018-02-20T08:12:19.438Z,27.45
2018-02-20T08:14:46.120Z,30.00
2018-02-20T08:17:13.596Z,30.45
2018-02-20T08:19:40.295Z,28.08
2018-02-20T08:22:06.971Z,29.40
2018-02-20T08:24:33.809Z,27.52
2018-02-20T08:27:04.681Z,31.27
2018-02-20T08:29:31.341Z,26.62
2018-02-20T08:31:58.012Z,32.50
2018-02-20T08:34:24.653Z,28.77
2018-02-20T08:36:52.048Z,27.85
2018-02-20T08:39:18.719Z,30.50
2018-02-20T08:41:46.256Z,31.45
2018-02-20T08:44:12.902Z,31.05
2018-02-20T08:46:39.536Z,32.08
2018-02-20T08:49:10.292Z,33.95
2018-02-20T08:51:40.892Z,30.02
2018-02-20T08:54:07.536Z,29.17
2018-02-20T08:56:34.868Z,28.77
2018-02-20T08:59:02.201Z,29.77
2018-02-20T09:01:28.842Z,28.45
2018-02-20T09:03:57.387Z,32.60
2018-02-20T09:06:24.104Z,27.27
2018-02-20T09:08:50.763Z,31.23
2018-02-20T09:11:17.449Z,34.55
2018-02-20T09:13:44.217Z,32.88
2018-02-20T09:16:10.872Z,29.52
2018-02-20T09:18:37.641Z,30.37
2018-02-20T09:21:04.324Z,30.37
2018-02-20T09:23:34.960Z,29.58
2018-02-20T09:26:05.744Z,28.92
2018-02-20T09:28:32.405Z,30.75
2018-02-20T09:31:03.174Z,31.70
2018-02-20T09:33:30.702Z,28.10
2018-02-20T09:36:01.488Z,29.60
2018-02-20T09:38:28.137Z,30.27
2018-02-20T09:40:54.778Z,33.08
2018-02-20T09:43:21.548Z,31.50
2018-02-20T09:45:48.256Z,34.30
2018-02-20T09:48:15.002Z,29.87
2018-02-20T09:50:41.663Z,31.27
2018-02-20T09:53:08.332Z,32.30
2018-02-20T09:55:34.988Z,35.63
2018-02-20T09:58:01.740Z,32.85
2018-02-20T10:00:36.147Z,35.20
2018-02-20T10:03:02.848Z,32.50
2018-02-20T10:05:29.497Z,36.00
2018-02-20T10:07:56.175Z,36.97
2018-02-20T10:10:22.836Z,35.03
2018-02-20T10:12:49.525Z,36.00
2018-02-20T10:15:16.201Z,36.20
2018-02-20T10:17:42.957Z,35.67
2018-02-20T10:20:10.040Z,36.03
2018-02-20T10:22:36.761Z,35.87
2018-02-20T10:25:03.430Z,38.53
2018-02-20T10:27:36.282Z,37.77
2018-02-20T10:30:02.980Z,37.17
2018-02-20T10:32:29.656Z,37.83
2018-02-20T10:34:56.317Z,37.10
2018-02-20T10:37:22.981Z,36.27
2018-02-20T10:39:49.792Z,37.67
2018-02-20T10:42:16.474Z,37.80
2018-02-20T10:44:43.173Z,37.83
2018-02-20T10:47:09.811Z,35.03
2018-02-20T10:49:36.592Z,34.25
2018-02-20T10:52:03.312Z,34.38
2018-02-20T10:54:29.956Z,33.78
2018-02-20T10:56:56.618Z,36.85
2018-02-20T10:59:23.308Z,34.30
2018-02-20T11:01:49.988Z,31.98
2018-02-20T11:04:16.719Z,30.40
2018-02-20T11:06:43.388Z,33.97
2018-02-20T11:09:10.083Z,28.65
2018-02-20T11:11:36.772Z,30.25
2018-02-20T11:14:03.393Z,31.80
2018-02-20T11:16:30.059Z,31.73
2018-02-20T11:18:56.717Z,31.65
2018-02-20T11:21:23.366Z,26.85
2018-02-20T11:23:50.032Z,32.47
2018-02-20T11:26:16.723Z,31.12
2018-02-20T11:28:43.504Z,35.85
2018-02-20T11:31:10.223Z,28.00
2018-02-20T11:33:36.848Z,27.25
2018-02-20T11:36:07.232Z,29.67
2018-02-20T11:38:33.870Z,30.55
2018-02-20T11:41:00.512Z,32.33
2018-02-20T11:43:27.152Z,28.27
2018-02-20T11:45:53.777Z,26.58
2018-02-20T11:48:24.174Z,30.55
2018-02-20T11:50:50.855Z,33.72
2018-02-20T11:53:17.516Z,28.45
2018-02-20T11:55:44.136Z,23.83
2018-02-20T11:58:11.483Z,26.95
2018-02-20T12:00:38.157Z,25.10
2018-02-20T12:03:04.899Z,25.95
2018-02-20T12:05:33.371Z,29.08
2018-02-20T12:08:00.040Z,27.05
2018-02-20T12:10:26.715Z,25.85
2018-02-20T12:12:57.510Z,28.90
2018-02-20T12:15:24.904Z,24.52
2018-02-20T12:17:52.349Z,28.55
2018-02-20T12:20:19.065Z,30.23
2018-02-20T12:22:45.652Z,24.00
2018-02-20T12:25:12.363Z,32.42
2018-02-20T12:27:39.036Z,25.80
2018-02-20T12:30:05.752Z,30.23
2018-02-20T12:32:36.641Z,26.30
2018-02-20T12:35:03.222Z,29.27
2018-02-20T12:37:30.054Z,24.75
2018-02-20T12:39:56.699Z,24.75
2018-02-20T12:42:23.380Z,28.45
2018-02-20T12:44:50.876Z,28.58
2018-02-20T12:47:17.540Z,25.88
2018-02-20T12:49:50.418Z,24.35
2018-02-20T12:52:17.126Z,24.33
2018-02-20T12:54:43.788Z,27.55
2018-02-20T12:57:14.387Z,25.98
2018-02-20T12:59:41.072Z,24.08
2018-02-20T13:02:07.703Z,26.50
2018-02-20T13:04:34.349Z,22.35
2018-02-20T13:07:01.013Z,22.17
2018-02-20T13:09:27.642Z,24.02
2018-02-20T13:11:54.415Z,23.17
2018-02-20T13:14:21.121Z,20.77
2018-02-20T13:16:47.775Z,22.80
2018-02-20T13:19:14.430Z,26.27
2018-02-20T13:21:41.135Z,25.37
2018-02-20T13:24:07.869Z,26.48
2018-02-20T13:26:34.531Z,25.35
2018-02-20T13:29:01.576Z,25.90
2018-02-20T13:31:28.473Z,33.40
2018-02-20T13:33:55.157Z,32.20
2018-02-20T13:36:21.811Z,26.27
2018-02-20T13:38:48.450Z,26.10
2018-02-20T13:41:15.116Z,26.35
2018-02-20T13:43:41.756Z,26.92
2018-02-20T13:46:08.448Z,27.40
2018-02-20T13:48:35.090Z,30.10
2018-02-20T13:51:01.804Z,29.55
2018-02-20T13:53:28.437Z,27.45
2018-02-20T13:55:55.098Z,27.13
2018-02-20T13:58:21.796Z,27.23
2018-02-20T14:00:48.447Z,29.00
2018-02-20T14:03:15.134Z,26.48
2018-02-20T14:05:41.872Z,24.25
2018-02-20T14:08:08.983Z,28.10
2018-02-20T14:10:35.620Z,25.33
2018-02-20T14:13:02.267Z,24.70
2018-02-20T14:15:28.928Z,21.80
2018-02-20T14:17:55.616Z,27.08
2018-02-20T14:20:22.285Z,25.42
2018-02-20T14:22:49.032Z,24.00
2018-02-20T14:25:15.680Z,26.83
2018-02-20T14:27:42.311Z,25.25
2018-02-20T14:30:08.964Z,26.75
2018-02-20T14:32:35.584Z,27.42
2018-02-20T14:35:02.236Z,29.92
2018-02-20T14:37:28.859Z,24.77
2018-02-20T14:39:59.414Z,24.70
2018-02-20T14:42:26.077Z,28.33
2018-02-20T14:44:52.779Z,26.17
2018-02-20T14:47:20.157Z,27.60
2018-02-20T14:49:46.832Z,25.08
2018-02-20T14:52:13.504Z,26.00
2018-02-20T14:54:40.150Z,24.73
2018-02-20T14:57:06.835Z,26.98
2018-02-20T14:59:33.498Z,25.80
2018-02-20T15:02:00.158Z,27.77
2018-02-20T15:04:26.803Z,26.67
2018-02-20T15:06:53.460Z,24.65
2018-02-20T15:09:20.102Z,25.77
2018-02-20T15:11:46.754Z,27.33
2018-02-20T15:14:13.489Z,24.25
2018-02-20T15:16:40.144Z,24.63
2018-02-20T15:19:06.787Z,29.80
2018-02-20T15:21:33.532Z,28.62
2018-02-20T15:24:00.238Z,23.42
2018-02-20T15:26:26.893Z,25.85
2018-02-20T15:28:53.541Z,24.02
2018-02-20T15:31:20.180Z,25.15
2018-02-20T15:33:46.856Z,26.85
2018-02-20T15:36:13.565Z,28.98
2018-02-20T15:38:40.566Z,27.58
2018-02-20T15:41:08.145Z,25.73
2018-02-20T15:43:34.882Z,27.42
2018-02-20T15:46:01.545Z,24.92
2018-02-20T15:48:28.791Z,25.60
2018-02-20T15:50:55.435Z,29.60
2018-02-20T15:53:22.959Z,24.12
2018-02-20T15:55:50.560Z,27.92
2018-02-20T15:58:17.188Z,30.02
2018-02-20T16:00:43.874Z,26.15
2018-02-20T16:03:11.390Z,28.00
2018-02-20T16:05:38.059Z,32.38
2018-02-20T16:08:04.744Z,28.05
2018-02-20T16:10:31.543Z,33.17
2018-02-20T16:12:58.281Z,32.10
2018-02-20T16:15:24.984Z,30.12
2018-02-20T16:17:51.652Z,30.60
2018-02-20T16:20:18.305Z,32.25
2018-02-20T16:22:44.980Z,33.88
2018-02-20T16:25:11.681Z,27.62
2018-02-20T16:27:38.342Z,30.95
2018-02-20T16:30:05.082Z,32.67
2018-02-20T16:32:31.896Z,28.15
2018-02-20T16:34:58.870Z,32.25
2018-02-20T16:37:25.568Z,31.25
2018-02-20T16:39:52.270Z,31.77
2018-02-20T16:42:19.615Z,31.67
2018-02-20T16:44:47.070Z,29.33
2018-02-20T16:47:13.709Z,31.87
2018-02-20T16:49:40.389Z,35.05
2018-02-20T16:52:10.921Z,31.48
2018-02-20T16:54:37.593Z,29.10
2018-02-20T16:57:04.376Z,35.22
2018-02-20T16:59:31.084Z,32.22
2018-02-20T17:01:57.740Z,31.73
2018-02-20T17:04:24.441Z,33.50
2018-02-20T17:06:51.160Z,29.83
2018-02-20T17:09:17.853Z,33.88
2018-02-20T17:11:44.700Z,35.28
2018-02-20T17:14:11.360Z,34.47
2018-02-20T17:16:38.085Z,35.95
2018-02-20T17:19:04.743Z,33.85
2018-02-20T17:21:31.621Z,35.10
2018-02-20T17:23:58.331Z,30.83
2018-02-20T17:26:25.029Z,35.97
2018-02-20T17:28:56.246Z,31.98
2018-02-20T17:31:23.033Z,34.63
2018-02-20T17:33:49.962Z,33.40
2018-02-20T17:36:16.679Z,36.83
2018-02-20T17:38:43.400Z,33.92
2018-02-20T17:41:10.070Z,33.20
2018-02-20T17:43:37.612Z,39.58
2018-02-20T17:46:04.319Z,36.42
2018-02-20T17:48:35.260Z,37.53
2018-02-20T17:51:01.982Z,37.70
2018-02-20T17:53:28.749Z,41.97
2018-02-20T17:55:55.435Z,33.70
2018-02-20T17:58:22.137Z,38.35
2018-02-20T18:00:49.721Z,34.80
2018-02-20T18:03:16.540Z,39.85
2018-02-20T18:05:43.225Z,38.63
2018-02-20T18:08:14.324Z,40.35
2018-02-20T18:10:41.744Z,38.75
2018-02-20T18:13:08.455Z,45.30
2018-02-20T18:15:35.167Z,44.92
2018-02-20T18:18:04.186Z,41.10
2018-02-20T18:20:31.049Z,41.63
2018-02-20T18:23:14.213Z,39.00
2018-02-20T18:25:43.361Z,37.80
2018-02-20T18:28:12.082Z,41.75
2018-02-20T18:30:43.571Z,38.38
2018-02-20T18:33:14.673Z,38.63
2018-02-20T18:35:44.502Z,45.78
2018-02-20T18:38:17.802Z,43.25
2018-02-20T18:40:45.490Z,43.13
2018-02-20T18:43:12.381Z,46.37
2018-02-20T18:45:39.244Z,49.13
2018-02-20T18:48:07.434Z,45.72
2018-02-20T18:50:37.469Z,49.08
2018-02-20T18:53:10.262Z,43.95
2018-02-20T18:55:37.853Z,43.87
2018-02-20T18:58:04.794Z,45.28
2018-02-20T19:10:17.570Z,40.08
2018-02-20T19:12:46.898Z,41.80
2018-02-20T19:15:17.075Z,46.15
2018-02-20T19:17:45.985Z,47.28
2018-02-20T19:20:16.966Z,46.00
2018-02-20T19:22:50.696Z,44.55
2018-02-20T19:25:21.652Z,45.60
2018-02-20T19:27:53.306Z,47.47
2018-02-20T19:30:28.316Z,48.17
2018-02-20T19:32:55.685Z,42.28
2018-02-20T19:35:26.053Z,49.20
2018-02-20T19:37:53.095Z,46.42
2018-02-20T19:40:20.272Z,41.42
2018-02-20T19:42:47.138Z,48.45
2018-02-20T19:45:20.666Z,44.53
2018-02-20T19:47:54.361Z,45.12
2018-02-20T19:50:25.783Z,39.13
2018-02-20T19:52:59.459Z,47.42
2018-02-20T19:55:27.416Z,43.50
2018-02-20T19:57:55.124Z,49.08
2018-02-20T20:00:26.625Z,42.72
2018-02-20T20:02:58.932Z,45.42
2018-02-20T20:05:29.570Z,44.70
2018-02-20T20:08:01.592Z,47.47
2018-02-20T20:10:37.278Z,44.40
2018-02-20T20:13:05.021Z,40.95
2018-02-20T20:15:32.735Z,39.33
2018-02-20T20:17:59.780Z,43.85
2018-02-20T20:20:37.008Z,42.50
2018-02-20T20:22:58.243Z,40.55
2018-02-20T20:25:26.583Z,37.42
2018-02-20T20:27:53.596Z,41.10
2018-02-20T20:30:30.027Z,40.90
2018-02-20T20:32:57.552Z,45.95
2018-02-20T20:35:30.842Z,46.53
2018-02-20T20:38:04.905Z,45.95
2018-02-20T20:40:38.034Z,46.95
2018-02-20T20:43:05.602Z,44.30
2018-02-20T20:55:19.665Z,38.53
2018-02-20T20:57:47.010Z,46.88
2018-02-20T21:00:18.025Z,67.68
2018-02-20T21:02:44.764Z,45.00
2018-02-20T21:05:11.555Z,52.05
2018-02-20T21:07:42.507Z,46.30
2018-02-20T21:10:09.332Z,44.03
2018-02-20T21:12:41.914Z,45.38
2018-02-20T21:15:08.647Z,48.83
2018-02-20T21:17:35.859Z,49.05
2018-02-20T21:20:08.366Z,46.08
2018-02-20T21:22:35.924Z,43.55
2018-02-20T21:25:04.320Z,44.95
2018-02-20T21:27:33.163Z,47.03
2018-02-20T21:30:01.246Z,46.97
2018-02-20T21:32:34.308Z,48.25
2018-02-20T21:35:07.031Z,51.50
2018-02-20T21:37:42.877Z,46.97
2018-02-20T21:40:09.612Z,46.70
2018-02-20T21:42:46.120Z,46.72
2018-02-20T21:45:17.112Z,43.45
2018-02-20T21:47:52.036Z,41.45
2018-02-20T21:50:20.108Z,44.88
2018-02-20T21:52:48.847Z,44.00
2018-02-20T22:05:02.160Z,46.03
2018-02-20T22:07:28.848Z,41.35
2018-02-20T22:09:55.537Z,45.55
2018-02-20T22:12:22.267Z,42.65
2018-02-20T22:14:58.123Z,45.38
2018-02-20T22:17:24.975Z,46.15
2018-02-20T22:19:52.271Z,41.05
2018-02-20T22:22:23.431Z,44.20
2018-02-20T22:24:54.485Z,41.67
2018-02-20T22:27:23.577Z,46.40
2018-02-20T22:29:51.954Z,39.13
2018-02-20T22:32:19.391Z,44.92
2018-02-20T22:34:49.824Z,45.15
2018-02-20T22:37:22.261Z,48.80
2018-02-20T22:39:52.488Z,46.85
2018-02-20T22:42:19.975Z,48.58
2018-02-20T22:44:46.988Z,46.67
2018-02-20T22:47:13.789Z,50.33
2018-02-20T22:49:55.866Z,52.83
2018-02-20T22:52:28.116Z,46.03
2018-02-20T22:54:58.857Z,46.63
2018-02-20T22:57:25.643Z,50.35
2018-02-20T22:59:55.149Z,49.28
2018-02-20T23:02:22.186Z,52.85
2018-02-20T23:04:48.924Z,46.13
2018-02-20T23:07:15.585Z,57.92
2018-02-20T23:09:50.920Z,50.58
2018-02-20T23:12:17.916Z,56.13
2018-02-20T23:14:46.064Z,49.78
2018-02-20T23:17:19.082Z,57.13
2018-02-20T23:19:45.767Z,55.55
2018-02-20T23:22:15.225Z,54.25
2018-02-20T23:24:42.737Z,51.05
2018-02-20T23:27:15.257Z,55.10
2018-02-20T23:29:41.945Z,51.70
2018-02-20T23:32:12.926Z,59.22
2018-02-20T23:34:42.439Z,52.35
2018-02-20T23:37:18.102Z,51.78
2018-02-20T23:39:44.791Z,55.22
2018-02-20T23:42:12.127Z,51.97
2018-02-20T23:44:40.665Z,55.53
2018-02-20T23:47:07.400Z,58.35
2018-02-20T23:49:34.512Z,54.83
2018-02-20T23:52:01.283Z,53.25
2018-02-20T23:54:28.081Z,56.85
2018-02-20T23:56:54.901Z,50.97
2018-02-20T23:59:35.564Z,60.75
